Time;durP1;ratioP1;P1;durP2;ratioP2;P2;SDS_P1;SDS_P2;PMS_P1;PMS_P2;Temp;Humidity;BMP_temperature;BMP_pressure;BME280_temperature;BME280_humidity;BME280_pressure;Samples;Min_cycle;Max_cycle;Signal;HPM_P1;HPM_P2
2022/04/01 00:02:54;;;;;;;10.90;6.58;;;;;;;2.64;62.48;98803.20;2098134;84;27717;-71
2022/04/01 00:05:55;;;;;;;20.52;7.70;;;;;;;2.58;62.11;98795.91;2099575;84;29313;-70
2022/04/01 00:08:57;;;;;;;10.45;7.35;;;;;;;2.58;62.23;98795.91;2089845;84;31441;-71
2022/04/01 00:11:59;;;;;;;12.40;6.53;;;;;;;2.55;62.14;98791.21;2064016;86;32945;-67
2022/04/01 00:15:00;;;;;;;12.03;7.72;;;;;;;2.51;62.10;98787.81;2065364;84;30776;-72
2022/04/01 00:18:03;;;;;;;13.83;8.20;;;;;;;2.49;62.25;98779.56;2085311;84;27720;-67
2022/04/01 00:21:04;;;;;;;12.95;6.97;;;;;;;2.49;62.39;98791.45;2064111;86;29310;-67
2022/04/01 00:24:07;;;;;;;12.73;7.53;;;;;;;2.46;62.73;98786.28;2064568;83;31372;-71
2022/04/01 00:27:12;;;;;;;11.93;7.17;;;;;;;2.42;62.73;98782.92;2099349;84;33134;-72
2022/04/01 00:30:14;;;;;;;10.90;7.10;;;;;;;2.39;63.06;98791.84;2100098;84;29462;-74
2022/04/01 00:33:16;;;;;;;12.78;7.10;;;;;;;2.34;63.50;98783.67;2100654;84;28333;-71
2022/04/01 00:36:18;;;;;;;18.80;7.97;;;;;;;2.24;63.62;98785.38;2100501;84;28755;-68
2022/04/01 00:39:22;;;;;;;11.85;8.00;;;;;;;2.22;63.79;98798.27;2100019;84;31595;-72
2022/04/01 00:42:25;;;;;;;14.20;7.20;;;;;;;2.19;64.11;98795.27;2098277;84;34188;-67
2022/04/01 00:45:28;;;;;;;18.48;7.70;;;;;;;2.16;64.13;98789.25;2099194;84;30728;-73
2022/04/01 00:48:30;;;;;;;16.15;7.22;;;;;;;2.07;64.33;98784.72;2100179;84;27750;-67
2022/04/01 00:51:32;;;;;;;11.80;7.80;;;;;;;2.05;64.38;98790.98;2097919;84;28737;-66
2022/04/01 00:54:35;;;;;;;12.93;6.35;;;;;;;2.00;64.86;98788.53;2097783;84;31852;-67
2022/04/01 00:57:38;;;;;;;12.18;7.17;;;;;;;1.95;64.93;98790.04;2097716;84;33866;-66
2022/04/01 01:00:40;;;;;;;11.08;7.15;;;;;;;1.91;65.07;98798.99;2066735;85;30606;-75
2022/04/01 01:03:42;;;;;;;13.95;7.33;;;;;;;1.89;65.31;98796.87;2100568;84;27702;-71
2022/04/01 01:06:50;;;;;;;18.92;8.13;;;;;;;1.84;65.48;98792.21;2117679;83;28697;-67
2022/04/01 01:09:53;;;;;;;13.85;6.60;;;;;;;1.79;65.82;98796.83;2085205;84;32381;-69
2022/04/01 01:12:56;;;;;;;19.07;7.40;;;;;;;1.74;66.61;98797.45;2099591;84;33814;-68
2022/04/01 01:15:58;;;;;;;14.53;7.37;;;;;;;1.68;67.00;98797.23;2100216;84;29686;-70
2022/04/01 01:19:18;;;;;;;17.90;8.25;;;;;;;1.61;66.58;98803.64;2100711;84;27982;-73
2022/04/01 01:22:20;;;;;;;13.95;7.80;;;;;;;1.55;66.95;98796.82;2100268;84;29628;-75
2022/04/01 01:25:22;;;;;;;12.73;7.20;;;;;;;1.50;67.31;98798.31;2094365;84;31971;-78
2022/04/01 01:28:24;;;;;;;20.35;8.78;;;;;;;1.47;67.32;98793.15;2056051;86;33928;-75
2022/04/01 01:31:27;;;;;;;13.50;7.70;;;;;;;1.44;67.61;98797.69;2027383;87;29716;-77
2022/04/01 01:34:32;;;;;;;14.70;8.48;;;;;;;1.39;67.85;98801.82;2055337;86;27799;-77
2022/04/01 01:37:33;;;;;;;12.45;7.37;;;;;;;1.34;67.94;98794.05;2044256;86;28670;-65
2022/04/01 01:40:35;;;;;;;14.73;8.75;;;;;;;1.30;69.04;98784.98;2055415;85;31545;-75
2022/04/01 01:43:38;;;;;;;11.93;7.58;;;;;;;1.25;68.52;98785.60;2027631;87;34112;-77
2022/04/01 01:46:40;;;;;;;15.30;8.38;;;;;;;1.16;69.30;98782.87;2055566;86;29644;-66
2022/04/01 01:54:42;;;;;;;14.75;8.23;;;;;;;1.11;68.99;98783.00;2055981;86;28283;-65
2022/04/01 01:56:06;;;;;;;15.98;8.80;;;;;;;0.99;69.77;98777.73;2054165;86;31237;-65
2022/04/01 01:59:11;;;;;;;14.30;8.73;;;;;;;0.93;69.82;98776.62;2013418;88;34191;-67
2022/04/01 02:02:12;;;;;;;14.43;7.78;;;;;;;0.88;69.75;98783.81;2048262;86;29792;-75
2022/04/01 02:05:16;;;;;;;13.30;7.53;;;;;;;0.82;69.97;98780.94;2050377;86;27815;-73
2022/04/01 02:08:18;;;;;;;14.95;8.38;;;;;;;0.78;70.25;98777.16;2053632;86;29115;-69
2022/04/01 02:11:21;;;;;;;13.32;8.35;;;;;;;0.74;70.38;98779.88;2053807;86;31447;-73
2022/04/01 02:14:23;;;;;;;17.05;8.08;;;;;;;0.71;70.20;98781.30;2072515;85;32995;-78
2022/04/01 02:17:25;;;;;;;14.68;7.92;;;;;;;0.69;70.49;98776.53;2053486;86;30480;-76
2022/04/01 02:20:31;;;;;;;15.15;8.83;;;;;;;0.67;70.61;98777.51;2054200;86;27712;-75
2022/04/01 02:23:31;;;;;;;14.65;8.33;;;;;;;0.66;70.76;98777.10;2053721;86;28923;-76
2022/04/01 02:26:34;;;;;;;16.25;7.25;;;;;;;0.63;70.84;98778.08;2057817;85;32222;-65
2022/04/01 02:29:36;;;;;;;12.10;7.55;;;;;;;0.60;70.96;98774.22;2049744;86;34191;-74
2022/04/01 02:32:40;;;;;;;13.58;7.97;;;;;;;0.57;70.94;98778.27;2032446;87;30885;-72
2022/04/01 02:35:42;;;;;;;22.48;8.25;;;;;;;0.53;71.33;98774.89;2027373;87;27617;-69
2022/04/01 02:38:45;;;;;;;13.80;7.58;;;;;;;0.51;71.00;98781.10;2035017;86;30182;-65
2022/04/01 02:41:48;;;;;;;13.20;7.08;;;;;;;0.48;71.55;98775.48;2064424;86;31052;-65
2022/04/01 02:44:50;;;;;;;14.60;8.25;;;;;;;0.44;71.67;98772.10;2065475;86;33859;-68
2022/04/01 02:47:53;;;;;;;17.90;7.92;;;;;;;0.44;71.59;98767.27;2065151;86;29653;-74
2022/04/01 02:50:54;;;;;;;16.25;7.60;;;;;;;0.46;71.40;98770.72;2064720;86;27687;-72
2022/04/01 02:53:56;;;;;;;12.37;7.20;;;;;;;0.45;71.74;98767.24;2082935;85;29076;-67
2022/04/01 02:56:59;;;;;;;14.65;7.17;;;;;;;0.43;72.35;98764.23;2064889;86;32279;-67
2022/04/01 03:00:01;;;;;;;20.52;7.50;;;;;;;0.38;72.08;98771.45;2082294;85;35087;-66
2022/04/01 03:03:06;;;;;;;17.00;8.05;;;;;;;0.34;71.97;98768.50;2046556;86;30004;-65
2022/04/01 03:06:08;;;;;;;15.68;8.93;;;;;;;0.30;71.98;98772.55;1999470;89;27758;-67
2022/04/01 03:09:11;;;;;;;13.72;6.87;;;;;;;0.25;72.11;98771.82;2034020;87;28725;-72
2022/04/01 03:12:13;;;;;;;16.45;8.00;;;;;;;0.24;72.18;98774.52;1999406;89;31513;-66
2022/04/01 03:15:15;;;;;;;12.40;7.42;;;;;;;0.22;72.57;98772.39;2034234;87;33332;-70
2022/04/01 03:18:17;;;;;;;19.85;8.88;;;;;;;0.18;72.39;98774.27;1997770;87;29978;-66
2022/04/01 03:21:20;;;;;;;17.20;8.38;;;;;;;0.17;72.39;98773.02;2050321;86;27726;-69
2022/04/01 03:24:22;;;;;;;19.80;8.75;;;;;;;0.17;72.48;98770.38;2056775;85;29409;-67
2022/04/01 03:27:24;;;;;;;16.77;7.75;;;;;;;0.17;72.56;98771.69;2081896;84;32023;-77
2022/04/01 03:30:25;;;;;;;24.95;11.33;;;;;;;0.18;72.81;98776.02;2059188;85;34073;-71
2022/04/01 03:33:28;;;;;;;30.88;13.28;;;;;;;0.16;72.91;98773.45;2048785;86;30877;-70
2022/04/01 03:36:29;;;;;;;32.20;12.10;;;;;;;0.17;73.04;98767.74;2064868;86;27719;-65
2022/04/01 03:39:36;;;;;;;17.35;8.68;;;;;;;0.16;72.95;98764.23;2024132;87;29076;-69
2022/04/01 03:42:37;;;;;;;20.40;9.70;;;;;;;0.17;73.01;98756.73;2065151;86;31048;-65
2022/04/01 03:45:40;;;;;;;14.15;7.92;;;;;;;0.15;73.19;98761.19;2065167;86;32961;-68
2022/04/01 03:48:59;;;;;;;19.12;10.13;;;;;;;0.12;73.06;98762.16;2065087;86;29732;-65
2022/04/01 03:52:02;;;;;;;17.98;9.15;;;;;;;0.09;73.10;98763.56;2060533;86;27589;-70
2022/04/01 03:55:07;;;;;;;22.95;9.55;;;;;;;0.06;73.13;98770.24;2064952;86;29995;-65
2022/04/01 03:58:15;;;;;;;14.00;8.25;;;;;;;0.04;73.46;98760.68;2065258;86;31685;-65
2022/04/01 04:01:15;;;;;;;22.40;10.43;;;;;;;0.03;73.30;98769.02;2063507;86;33211;-69
2022/04/01 04:04:17;;;;;;;18.70;9.45;;;;;;;-0.01;73.42;98771.36;2066736;85;29786;-65
2022/04/01 04:07:20;;;;;;;19.25;9.83;;;;;;;-0.03;73.41;98771.39;2094805;84;27647;-68
2022/04/01 04:10:27;;;;;;;23.65;10.90;;;;;;;-0.04;73.85;98770.14;2072265;85;28706;-66
2022/04/01 04:13:27;;;;;;;24.90;11.30;;;;;;;-0.07;73.66;98773.70;2065158;86;31074;-68
2022/04/01 04:16:47;;;;;;;19.95;9.85;;;;;;;-0.09;73.78;98774.23;2065318;86;33593;-68
2022/04/01 04:20:03;;;;;;;16.57;8.53;;;;;;;-0.11;73.93;98768.16;2065118;86;30460;-69
2022/04/01 04:23:26;;;;;;;;;;;;;;;-0.16;74.41;98769.58;2067565;86;27765;-65
2022/04/01 04:26:37;;;;;;;19.95;10.32;;;;;;;-0.17;74.04;98768.33;2041633;86;29172;-68
2022/04/01 04:29:50;;;;;;;16.65;9.68;;;;;;;-0.21;73.94;98771.52;2082528;84;31082;-67
2022/04/01 04:32:59;;;;;;;19.10;8.73;;;;;;;-0.24;74.37;98777.30;2038118;87;33074;-68
2022/04/01 04:36:04;;;;;;;15.20;8.53;;;;;;;-0.23;74.15;98784.29;2056242;86;30048;-71
2022/04/01 04:39:10;;;;;;;15.50;9.25;;;;;;;-0.25;74.26;98784.35;2061914;84;27474;-65
2022/04/01 04:42:13;;;;;;;12.73;8.03;;;;;;;-0.25;74.39;98786.14;2087554;84;29067;-72
2022/04/01 04:45:21;;;;;;;12.37;8.28;;;;;;;-0.24;74.45;98790.46;2082794;84;32265;-66
2022/04/01 04:48:23;;;;;;;19.02;8.93;;;;;;;-0.24;74.18;98790.02;2063563;83;32997;-72
2022/04/01 04:51:28;;;;;;;13.60;8.28;;;;;;;-0.25;74.18;98788.77;2092633;84;29690;-66
2022/04/01 04:54:30;;;;;;;15.65;8.78;;;;;;;-0.24;74.28;98787.83;2093775;84;36836;-66
2022/04/01 04:57:33;;;;;;;13.90;8.45;;;;;;;-0.25;74.90;98792.72;2099649;84;29866;-68
2022/04/01 05:00:35;;;;;;;15.58;9.53;;;;;;;-0.23;74.48;98781.22;2096293;84;32255;-69
2022/04/01 05:03:54;;;;;;;17.70;9.80;;;;;;;-0.19;74.30;98791.20;2100565;84;33360;-67
2022/04/01 05:07:29;;;;;;;17.60;9.55;;;;;;;-0.22;74.58;98791.28;2098201;84;30801;-68
2022/04/01 05:10:42;;;;;;;14.80;9.77;;;;;;;-0.21;74.35;98795.64;2097825;84;27766;-64
2022/04/01 05:14:01;;;;;;;16.97;9.73;;;;;;;-0.22;74.63;98791.28;2087502;84;29581;-65
2022/04/01 05:17:05;;;;;;;17.70;10.00;;;;;;;-0.23;74.44;98794.38;2085983;84;31596;-70
2022/04/01 05:20:16;;;;;;;15.00;10.15;;;;;;;-0.25;74.57;98797.52;2082573;84;33155;-65
2022/04/01 05:23:41;;;;;;;17.85;11.65;;;;;;;-0.26;74.62;98789.67;2097857;84;30095;-66
2022/04/01 05:26:52;;;;;;;18.27;10.93;;;;;;;-0.25;74.93;98784.35;2096120;83;27683;-66
2022/04/01 05:29:57;;;;;;;16.40;11.53;;;;;;;-0.21;74.66;98792.57;2036125;85;28699;-65
2022/04/01 05:33:06;;;;;;;18.92;11.80;;;;;;;-0.14;74.79;98798.95;2031014;86;31046;-69
2022/04/01 05:36:10;;;;;;;15.45;11.55;;;;;;;-0.11;74.62;98783.95;2044067;86;33492;-66
2022/04/01 05:39:13;;;;;;;17.32;11.50;;;;;;;-0.07;74.55;98792.60;1993861;89;30067;-69
2022/04/01 05:42:18;;;;;;;18.98;12.98;;;;;;;-0.07;74.50;98796.55;2013881;88;27638;-65
2022/04/01 05:45:20;;;;;;;16.07;11.43;;;;;;;-0.08;74.59;98795.67;2018380;87;29710;-66
2022/04/01 05:48:23;;;;;;;21.07;13.80;;;;;;;-0.05;74.57;98795.58;2032460;87;31087;-69
2022/04/01 05:51:27;;;;;;;18.85;13.60;;;;;;;-0.06;74.38;98788.59;2053192;86;34207;-65
2022/04/01 05:54:29;;;;;;;25.03;17.23;;;;;;;-0.02;74.50;98792.86;2021760;87;29633;-70
2022/04/01 05:57:31;;;;;;;19.00;13.15;;;;;;;0.01;74.44;98805.05;2029855;87;27875;-65
2022/04/01 06:00:38;;;;;;;19.07;13.72;;;;;;;0.02;74.28;98808.09;2030648;87;29388;-66
2022/04/01 06:04:19;;;;;;;24.15;14.18;;;;;;;0.04;74.32;98807.60;2029970;87;31079;-69
2022/04/01 06:07:44;;;;;;;22.67;15.80;;;;;;;0.07;74.33;98809.30;2029987;87;34199;-65
2022/04/01 06:11:07;;;;;;;22.82;14.45;;;;;;;0.09;74.16;98813.59;2030055;87;29737;-66
2022/04/01 06:14:47;;;;;;;22.62;15.03;;;;;;;0.14;74.17;98813.01;2029328;87;27686;-65
2022/04/01 06:18:22;;;;;;;22.22;12.18;;;;;;;0.19;74.28;98809.34;2030387;86;28721;-65
2022/04/01 06:21:27;;;;;;;21.93;13.93;;;;;;;0.19;74.12;98815.92;2013212;87;32283;-68
2022/04/01 06:24:40;;;;;;;17.65;13.35;;;;;;;0.22;74.05;98806.63;2012030;87;33047;-70
2022/04/01 06:27:50;;;;;;;17.40;13.38;;;;;;;0.28;74.04;98806.44;2030630;87;29672;-65
2022/04/01 06:30:56;;;;;;;20.50;14.23;;;;;;;0.35;73.80;98813.69;2031478;87;28338;-72
2022/04/01 06:34:18;;;;;;;18.62;12.58;;;;;;;0.38;73.95;98824.98;2009748;87;28796;-70
2022/04/01 06:37:29;;;;;;;17.90;11.85;;;;;;;0.40;73.69;98819.68;2031693;87;32406;-66
2022/04/01 06:41:09;;;;;;;17.42;12.30;;;;;;;0.43;73.45;98821.75;2031890;87;33691;-66
2022/04/01 06:44:10;;;;;;;18.23;12.73;;;;;;;0.43;73.74;98824.83;2031163;87;30917;-68
2022/04/01 06:47:12;;;;;;;38.65;20.00;;;;;;;0.45;73.43;98830.91;2031948;87;27790;-66
2022/04/01 06:50:16;;;;;;;22.22;14.53;;;;;;;0.52;73.63;98828.94;2007491;87;30097;-65
2022/04/01 06:53:19;;;;;;;23.95;13.98;;;;;;;0.54;73.29;98827.99;2010394;87;32294;-66
2022/04/01 06:56:20;;;;;;;19.77;12.80;;;;;;;0.56;73.32;98831.45;2031765;87;32985;-71
2022/04/01 06:59:22;;;;;;;25.57;12.47;;;;;;;0.58;73.25;98824.33;2032241;87;29656;-66
2022/04/01 07:02:24;;;;;;;19.55;13.78;;;;;;;0.64;73.28;98816.70;2032295;86;27722;-66
2022/04/01 07:05:27;;;;;;;19.25;14.05;;;;;;;0.71;73.34;98816.88;2016509;87;29954;-70
2022/04/01 07:08:29;;;;;;;23.87;12.28;;;;;;;0.79;73.27;98817.09;1997968;89;31137;-66
2022/04/01 07:11:32;;;;;;;20.90;12.63;;;;;;;0.87;73.03;98821.20;2025446;87;33123;-67
2022/04/01 07:14:35;;;;;;;22.82;13.60;;;;;;;0.88;72.76;98824.68;2031830;87;30864;-66
2022/04/01 07:17:37;;;;;;;16.30;12.28;;;;;;;0.85;72.69;98820.38;2012507;87;27609;-67
2022/04/01 07:20:39;;;;;;;19.95;12.85;;;;;;;0.84;72.70;98823.93;2002521;87;28934;-66
2022/04/01 07:23:41;;;;;;;23.65;15.45;;;;;;;0.80;72.59;98826.73;2031734;87;32123;-71
2022/04/01 07:26:44;;;;;;;15.63;12.07;;;;;;;0.86;72.91;98833.09;2002169;87;33372;-72
2022/04/01 07:29:46;;;;;;;18.92;12.45;;;;;;;0.88;72.48;98818.09;2024233;87;29763;-67
2022/04/01 07:32:54;;;;;;;15.85;11.75;;;;;;;0.84;72.34;98833.59;2040585;85;27641;-72
2022/04/01 07:35:56;;;;;;;20.15;13.35;;;;;;;0.84;72.46;98829.20;2041431;87;28594;-66
2022/04/01 07:38:57;;;;;;;19.02;12.58;;;;;;;0.90;72.33;98837.36;2066425;86;30852;-75
2022/04/01 07:42:00;;;;;;;19.50;13.00;;;;;;;0.89;72.14;98831.67;2061707;86;33098;-75
2022/04/01 07:45:03;;;;;;;22.62;14.47;;;;;;;0.91;72.28;98827.22;2040547;87;30528;-73
2022/04/01 07:48:07;;;;;;;64.00;27.60;;;;;;;0.92;72.15;98843.44;2073739;85;27712;-72
2022/04/01 07:51:09;;;;;;;31.33;16.70;;;;;;;0.96;72.31;98843.75;2005479;88;29538;-68
2022/04/01 07:54:13;;;;;;;30.08;17.45;;;;;;;1.01;72.06;98839.16;2084597;85;31438;-71
2022/04/01 07:57:15;;;;;;;22.40;14.20;;;;;;;1.11;72.39;98841.03;2083177;84;32429;-72
2022/04/01 08:00:18;;;;;;;19.27;13.60;;;;;;;1.16;71.73;98840.89;2058684;84;29646;-72
2022/04/01 08:03:20;;;;;;;28.15;15.75;;;;;;;1.20;71.53;98842.48;2100432;84;27648;-71
2022/04/01 08:06:22;;;;;;;21.50;14.73;;;;;;;1.22;71.18;98852.53;2100381;83;28702;-71
2022/04/01 08:09:25;;;;;;;24.57;16.97;;;;;;;1.25;71.53;98848.47;2100045;84;31265;-69
2022/04/01 08:12:27;;;;;;;27.85;16.60;;;;;;;1.33;71.41;98853.00;2099461;84;33920;-70
2022/04/01 08:15:29;;;;;;;24.47;16.20;;;;;;;1.33;71.33;98860.08;2090809;84;29673;-74
2022/04/01 08:18:31;;;;;;;29.23;17.00;;;;;;;1.36;71.57;98866.09;2093265;84;27696;-73
2022/04/01 08:21:32;;;;;;;21.30;15.58;;;;;;;1.40;71.59;98861.59;2098876;84;29523;-72
2022/04/01 08:24:35;;;;;;;24.30;15.10;;;;;;;1.49;71.63;98859.93;2097827;84;31074;-71
2022/04/01 08:27:37;;;;;;;21.55;15.43;;;;;;;1.57;71.23;98854.84;2095876;84;32968;-71
2022/04/01 08:30:40;;;;;;;24.87;15.00;;;;;;;1.64;71.38;98869.53;2050554;86;29709;-71
2022/04/01 08:33:42;;;;;;;19.25;14.15;;;;;;;1.68;70.97;98872.47;2056271;86;27818;-72
2022/04/01 08:36:44;;;;;;;18.20;13.48;;;;;;;1.65;71.00;98869.48;2056169;86;29518;-72
2022/04/01 08:39:47;;;;;;;22.87;13.78;;;;;;;1.65;71.20;98869.94;2056257;86;31975;-71
2022/04/01 08:42:49;;;;;;;20.23;13.40;;;;;;;1.67;71.11;98868.95;2051395;86;33027;-70
2022/04/01 08:45:50;;;;;;;19.62;13.03;;;;;;;1.68;70.76;98877.75;2030073;87;29616;-71
2022/04/01 08:48:53;;;;;;;18.92;13.62;;;;;;;1.70;70.98;98877.68;2053530;86;27636;-69
2022/04/01 08:51:56;;;;;;;26.65;18.90;;;;;;;1.69;70.96;98879.91;2029853;87;29499;-71
2022/04/01 08:55:04;;;;;;;23.18;13.32;;;;;;;1.70;70.86;98875.92;1975177;89;31876;-69
2022/04/01 08:58:06;;;;;;;21.87;12.73;;;;;;;1.76;71.04;98876.14;2017892;87;32978;-70
2022/04/01 09:01:08;;;;;;;19.55;12.82;;;;;;;1.77;70.57;98874.75;2028380;87;30593;-69
2022/04/01 09:04:22;;;;;;;22.48;14.35;;;;;;;1.73;70.30;98884.17;2029537;87;27769;-70
2022/04/01 09:07:24;;;;;;;20.57;12.28;;;;;;;1.67;70.75;98883.47;1995988;89;28732;-69
2022/04/01 09:10:27;;;;;;;26.37;12.78;;;;;;;1.70;70.60;98886.48;2022826;86;31036;-70
2022/04/01 09:13:46;;;;;;;28.32;14.18;;;;;;;1.70;70.68;98892.20;2030074;87;32408;-69
2022/04/01 09:16:51;;;;;;;46.53;30.08;;;;;;;1.61;70.41;98890.31;2030020;87;30464;-69
2022/04/01 09:20:07;;;;;;;20.20;11.93;;;;;;;1.62;70.76;98887.20;2030500;87;27733;-69
2022/04/01 09:23:09;;;;;;;22.00;12.10;;;;;;;1.65;70.89;98891.93;2030158;87;28748;-68
2022/04/01 09:26:10;;;;;;;22.00;11.33;;;;;;;1.70;70.59;98889.12;2030288;87;31177;-67
2022/04/01 09:29:12;;;;;;;21.45;12.15;;;;;;;1.73;70.60;98894.73;2030907;87;33171;-67
2022/04/01 09:32:14;;;;;;;19.02;10.20;;;;;;;1.71;70.51;98893.92;2032032;87;29832;-68
2022/04/01 09:35:18;;;;;;;19.60;10.80;;;;;;;1.72;70.16;98900.93;2050756;86;27728;-68
2022/04/01 09:38:23;;;;;;;15.48;9.25;;;;;;;1.72;70.26;98910.17;2019667;86;29526;-68
2022/04/01 09:41:34;;;;;;;20.32;9.38;;;;;;;1.72;69.61;98903.13;2049227;86;31842;-68
2022/04/01 09:44:36;;;;;;;19.32;10.28;;;;;;;1.69;69.64;98901.03;2055627;86;33105;-68
2022/04/01 09:47:38;;;;;;;16.15;9.48;;;;;;;1.71;70.02;98896.56;2055936;86;29642;-67
2022/04/01 09:50:43;;;;;;;16.77;9.98;;;;;;;1.76;69.88;98897.27;2056095;86;27789;-66
2022/04/01 09:53:54;;;;;;;18.30;9.60;;;;;;;1.78;69.90;98908.64;2055317;85;29118;-66
2022/04/01 09:56:58;;;;;;;18.02;10.20;;;;;;;1.85;69.84;98904.84;2055793;86;31264;-66
2022/04/01 10:00:00;;;;;;;24.45;11.73;;;;;;;1.97;70.30;98904.86;2055547;86;33837;-66
2022/04/01 10:03:06;;;;;;;25.12;12.43;;;;;;;2.11;69.96;98896.42;2055917;86;30038;-66
2022/04/01 10:06:10;;;;;;;21.33;10.72;;;;;;;2.24;69.47;98904.28;2055989;86;27736;-66
2022/04/01 10:09:13;;;;;;;26.20;15.55;;;;;;;2.30;68.70;98906.30;2055563;86;29923;-66
2022/04/01 10:12:18;;;;;;;27.87;13.78;;;;;;;2.31;68.94;98902.27;2055594;86;32272;-66
2022/04/01 10:15:20;;;;;;;17.48;9.45;;;;;;;2.38;69.45;98903.77;2055637;86;33818;-66
2022/04/01 10:18:23;;;;;;;63.05;23.05;;;;;;;2.38;68.09;98901.12;2055882;86;30241;-66
2022/04/01 10:21:25;;;;;;;34.30;11.73;;;;;;;2.40;68.75;98910.30;2055986;85;27688;-67
2022/04/01 10:24:59;;;;;;;36.23;14.95;;;;;;;2.47;68.86;98897.70;2055637;86;29961;-67
2022/04/01 10:28:04;;;;;;;48.33;17.90;;;;;;;2.57;69.08;98897.28;2055661;86;32391;-67
2022/04/01 10:31:11;;;;;;;42.13;15.75;;;;;;;2.68;68.72;98893.34;2046032;85;33648;-69
2022/04/01 10:34:21;;;;;;;39.18;12.13;;;;;;;2.74;68.37;98902.36;2081722;85;30449;-70
2022/04/01 10:37:25;;;;;;;23.10;9.43;;;;;;;2.67;67.64;98903.52;2094906;85;27668;-69
2022/04/01 10:40:32;;;;;;;18.02;9.23;;;;;;;2.67;68.08;98900.42;2094784;85;28835;-67
2022/04/01 10:43:38;;;;;;;39.95;14.50;;;;;;;2.67;67.32;98909.67;2094443;85;31040;-70
2022/04/01 10:46:58;;;;;;;25.65;10.85;;;;;;;2.62;67.84;98911.63;2093845;84;33338;-68
2022/04/01 10:53:48;;;;;;;27.42;10.20;;;;;;;2.62;66.69;98913.43;2084240;84;27686;-67
2022/04/01 10:57:06;;;;;;;21.40;11.22;;;;;;;2.62;66.69;98906.83;2100133;84;29643;-66
2022/04/01 11:00:14;;;;;;;29.25;12.98;;;;;;;2.62;66.49;98906.83;2100464;84;31088;-67
2022/04/01 11:03:23;;;;;;;27.73;10.32;;;;;;;2.63;66.95;98912.52;2099679;84;33010;-68
2022/04/01 11:06:30;;;;;;;30.92;12.23;;;;;;;2.62;67.03;98914.28;2100513;84;29670;-69
2022/04/01 11:09:47;;;;;;;23.10;11.53;;;;;;;2.57;66.81;98919.75;2099898;83;27719;-68
2022/04/01 11:12:51;;;;;;;21.55;9.93;;;;;;;2.52;66.85;98916.42;2013449;88;29058;-68
2022/04/01 11:16:12;;;;;;;23.57;10.50;;;;;;;2.51;67.14;98910.73;2013283;88;31047;-69
2022/04/01 11:19:19;;;;;;;27.20;12.70;;;;;;;2.57;67.03;98915.79;1981435;89;33129;-68
2022/04/01 11:22:43;;;;;;;26.73;12.43;;;;;;;2.57;67.07;98917.55;1981264;89;29635;-67
2022/04/01 11:25:50;;;;;;;33.48;14.30;;;;;;;2.54;67.15;98918.55;1998819;88;27771;-67
2022/04/01 11:28:51;;;;;;;43.73;19.55;;;;;;;2.59;67.50;98914.39;1992565;88;28846;-68
2022/04/01 11:32:07;;;;;;;34.83;11.28;;;;;;;2.63;67.34;98917.33;2021976;88;32310;-68
2022/04/01 11:35:11;;;;;;;29.32;13.65;;;;;;;2.66;66.87;98917.66;1989728;89;33115;-67
2022/04/01 11:38:17;;;;;;;62.45;22.70;;;;;;;2.67;66.71;98911.44;2012652;88;31660;-68
2022/04/01 11:41:19;;;;;;;32.53;15.93;;;;;;;2.69;67.09;98920.18;2022338;87;27655;-66
2022/04/01 11:44:23;;;;;;;29.72;11.20;;;;;;;2.65;66.77;98923.42;2022102;88;29980;-67
2022/04/01 11:47:37;;;;;;;21.50;11.65;;;;;;;2.60;66.76;98920.56;2022042;88;31102;-68
2022/04/01 11:50:45;;;;;;;28.67;14.20;;;;;;;2.59;67.25;98921.00;2064513;85;32246;-66
2022/04/01 11:53:51;;;;;;;30.45;13.83;;;;;;;2.63;67.42;98920.45;2073701;85;29645;-66
2022/04/01 11:56:54;;;;;;;35.88;16.90;;;;;;;2.72;67.65;98928.88;2074689;85;27644;-66
2022/04/01 12:00:00;;;;;;;28.40;13.70;;;;;;;2.78;67.62;98922.92;2074090;85;29587;-66
2022/04/01 12:03:03;;;;;;;22.70;13.53;;;;;;;2.83;67.43;98917.00;2073914;85;30476;-67
2022/04/01 12:09:30;;;;;;;32.15;11.85;;;;;;;2.78;67.05;98914.55;2056174;85;30999;-66
2022/04/01 12:12:33;;;;;;;38.67;13.93;;;;;;;2.77;66.90;98910.63;2037850;85;27877;-68
2022/04/01 12:15:38;;;;;;;28.50;14.13;;;;;;;2.71;67.23;98909.97;2038650;86;29785;-68
2022/04/01 12:18:46;;;;;;;24.05;11.88;;;;;;;2.72;67.40;98913.02;2031755;87;31129;-67
2022/04/01 12:21:57;;;;;;;37.40;14.47;;;;;;;2.81;67.77;98899.88;2044820;87;33659;-68
2022/04/01 12:24:59;;;;;;;22.82;12.35;;;;;;;2.88;67.75;98897.84;2101330;84;29676;-66
2022/04/01 12:28:07;;;;;;;32.50;13.48;;;;;;;2.97;67.87;98895.28;2074690;85;27696;-66
2022/04/01 12:31:24;;;;;;;41.88;14.90;;;;;;;3.03;67.75;98898.53;2027061;85;28709;-66
2022/04/01 12:34:27;;;;;;;24.00;10.70;;;;;;;3.14;67.73;98893.25;2018597;88;32008;-68
2022/04/01 12:37:29;;;;;;;25.68;12.18;;;;;;;3.15;67.21;98898.94;2012012;87;32973;-68
2022/04/01 12:40:56;;;;;;;28.40;15.30;;;;;;;3.17;67.25;98896.61;2029936;87;30850;-66
2022/04/01 12:44:00;;;;;;;32.08;11.75;;;;;;;3.24;67.21;98899.02;2030049;87;27718;-66
2022/04/01 12:47:03;;;;;;;22.90;10.75;;;;;;;3.33;67.47;98900.81;2021181;86;28743;-69
2022/04/01 12:50:09;;;;;;;18.12;10.13;;;;;;;3.43;67.26;98895.98;2030169;87;31871;-67
2022/04/01 12:53:12;;;;;;;50.67;23.95;;;;;;;3.48;66.87;98889.16;2016473;87;33809;-71
2022/04/01 12:56:21;;;;;;;53.90;23.42;;;;;;;3.55;67.07;98889.30;1997794;89;29729;-69
2022/04/01 12:59:26;;;;;;;32.58;13.75;;;;;;;3.64;67.04;98876.97;2000422;87;27760;-69
2022/04/01 13:02:28;;;;;;;;;;;;;;;3.77;66.92;98877.30;2015488;87;28775;-68
2022/04/01 13:05:30;;;;;;;34.23;13.65;;;;;;;3.90;66.41;98874.92;2001977;87;32217;-68
2022/04/01 13:08:32;;;;;;;31.65;14.40;;;;;;;3.99;66.09;98878.95;2030037;86;33057;-68
2022/04/01 13:11:45;;;;;;;32.40;12.58;;;;;;;4.10;66.12;98874.48;2007771;87;30574;-68
2022/04/01 13:14:57;;;;;;;31.07;10.82;;;;;;;4.22;66.46;98881.02;2030360;87;27685;-68
2022/04/01 13:18:00;;;;;;;165.52;85.62;;;;;;;4.32;65.92;98876.98;2008878;87;28696;-68
2022/04/01 13:21:02;;;;;;;35.88;19.40;;;;;;;4.38;66.01;98877.20;2006027;87;32068;-67
2022/04/01 13:24:06;;;;;;;46.90;21.33;;;;;;;4.44;65.73;98878.69;2045654;86;32928;-69
2022/04/01 13:27:11;;;;;;;45.92;22.05;;;;;;;4.47;65.33;98875.42;2023100;87;30816;-67
2022/04/01 13:30:14;;;;;;;42.13;19.57;;;;;;;4.54;65.65;98875.98;2023252;86;27651;-67
2022/04/01 13:33:16;;;;;;;27.93;16.97;;;;;;;4.61;65.29;98881.39;2024101;86;29593;-67
2022/04/01 13:36:18;;;;;;;31.65;17.90;;;;;;;4.66;65.54;98885.14;2056524;85;31054;-68
2022/04/01 13:39:20;;;;;;;28.07;9.03;;;;;;;4.74;65.43;98882.13;2055953;85;33757;-68
2022/04/01 13:42:24;;;;;;;31.97;8.43;;;;;;;4.78;64.41;98882.38;2052436;86;29635;-69
2022/04/01 13:45:26;;;;;;;22.73;6.70;;;;;;;4.77;61.98;98883.30;2051178;86;27728;-68
2022/04/01 13:48:27;;;;;;;25.65;7.28;;;;;;;4.73;61.94;98880.40;2053073;86;28652;-68
2022/04/01 13:51:30;;;;;;;21.30;6.55;;;;;;;4.71;62.06;98891.94;2021579;88;31200;-69
2022/04/01 13:54:33;;;;;;;22.15;8.60;;;;;;;4.64;59.63;98880.37;2021156;88;33233;-68
2022/04/01 13:57:34;;;;;;;21.80;7.47;;;;;;;4.58;59.44;98882.86;2038158;85;30464;-68
2022/04/01 14:00:39;;;;;;;38.90;7.83;;;;;;;4.53;61.06;98880.44;2055609;85;27716;-67
2022/04/01 14:03:40;;;;;;;33.08;9.85;;;;;;;4.47;59.92;98884.70;2056212;86;28708;-68
2022/04/01 14:06:42;;;;;;;44.80;10.80;;;;;;;4.38;59.30;98879.84;2056700;86;31453;-68
2022/04/01 14:09:45;;;;;;;53.23;17.20;;;;;;;4.37;58.79;98882.10;2056760;85;33559;-68
2022/04/01 14:12:47;;;;;;;31.25;7.55;;;;;;;4.34;59.61;98879.59;2056348;86;29650;-68
2022/04/01 14:15:49;;;;;;;23.30;7.58;;;;;;;4.29;57.85;98882.91;2056672;86;27566;-68
2022/04/01 14:18:51;;;;;;;20.35;5.65;;;;;;;4.22;57.65;98881.02;2051623;85;28672;-69
2022/04/01 14:21:53;;;;;;;15.20;6.15;;;;;;;4.17;56.28;98889.64;2029198;87;31093;-69
2022/04/01 14:24:54;;;;;;;26.17;7.55;;;;;;;4.09;55.86;98891.31;2032354;87;33753;-69
2022/04/01 14:27:56;;;;;;;33.60;11.30;;;;;;;4.02;56.81;98884.11;2018761;87;29617;-69
2022/04/01 14:30:59;;;;;;;22.17;8.25;;;;;;;4.01;56.74;98887.69;2056505;84;27657;-69
2022/04/01 14:34:01;;;;;;;30.40;10.20;;;;;;;4.04;57.35;98885.39;2023077;88;28586;-68
2022/04/01 14:37:05;;;;;;;29.55;9.45;;;;;;;4.06;56.84;98887.47;2033755;86;31071;-69
2022/04/01 14:40:09;;;;;;;16.42;6.70;;;;;;;4.06;56.86;98891.45;2056614;86;32975;-68